Time;durP1;ratioP1;P1;durP2;ratioP2;P2;SDS_P1;SDS_P2;PMS_P1;PMS_P2;Temp;Humidity;BMP_temperature;BMP_pressure;BME280_temperature;BME280_humidity;BME280_pressure;Samples;Min_cycle;Max_cycle;Signal;HPM_P1;HPM_P2
2021/01/27 00:01:56;;;;;;;16.70;6.95;;;;;;;;;;6395534;22;20182;-51
2021/01/27 00:04:23;;;;;;;8.70;5.40;;;;;;;;;;6395618;22;20230;-49
2021/01/27 00:07:02;;;;;;;8.85;5.90;;;;;;;;;;6395486;22;20208;-55
2021/01/27 00:09:30;;;;;;;16.08;9.25;;;;;;;;;;6395632;22;20182;-53
2021/01/27 00:11:57;;;;;;;10.65;6.22;;;;;;;;;;6395793;22;20327;-48
2021/01/27 00:14:23;;;;;;;9.80;6.25;;;;;;;;;;6396993;22;20177;-56
2021/01/27 00:16:50;;;;;;;9.20;6.63;;;;;;;;;;6396223;22;20542;-52
2021/01/27 00:19:43;;;;;;;9.50;6.55;;;;;;;;;;6397034;22;20166;-55
2021/01/27 00:22:10;;;;;;;11.80;6.68;;;;;;;;;;6398168;22;20177;-49
2021/01/27 00:24:38;;;;;;;11.20;8.30;;;;;;;;;;6396881;22;20160;-51
2021/01/27 00:27:05;;;;;;;10.27;5.70;;;;;;;;;;6396357;22;20186;-55
2021/01/27 00:29:31;;;;;;;12.45;8.50;;;;;;;;;;6396055;22;20203;-54
2021/01/27 00:31:58;;;;;;;10.60;6.93;;;;;;;;;;6396168;22;20169;-55
2021/01/27 00:34:46;;;;;;;9.20;6.18;;;;;;;;;;6395763;22;20161;-55
2021/01/27 00:37:13;;;;;;;10.65;5.85;;;;;;;;;;6396295;22;20178;-52
2021/01/27 00:39:40;;;;;;;12.30;7.38;;;;;;;;;;6396394;22;20193;-55
2021/01/27 00:42:07;;;;;;;13.77;8.50;;;;;;;;;;6396142;22;20165;-52
2021/01/27 00:44:34;;;;;;;17.85;11.02;;;;;;;;;;6395609;22;20192;-54
2021/01/27 00:47:01;;;;;;;14.07;9.30;;;;;;;;;;6396193;22;20177;-57
2021/01/27 00:49:40;;;;;;;16.90;10.30;;;;;;;;;;6394955;22;20190;-51
2021/01/27 00:52:07;;;;;;;14.63;7.35;;;;;;;;;;6395751;22;20163;-53
2021/01/27 00:54:34;;;;;;;13.32;8.00;;;;;;;;;;6394753;22;20205;-52
2021/01/27 00:57:11;;;;;;;8.10;5.80;;;;;;;;;;6395756;22;20192;-54
2021/01/27 00:59:38;;;;;;;13.10;7.03;;;;;;;;;;6395437;22;20220;-54
2021/01/27 01:02:05;;;;;;;9.35;6.38;;;;;;;;;;6395033;22;20365;-51
2021/01/27 01:04:31;;;;;;;9.45;6.22;;;;;;;;;;6395246;22;20197;-53
2021/01/27 01:06:58;;;;;;;10.25;5.80;;;;;;;;;;6395002;22;20455;-52
2021/01/27 01:09:27;;;;;;;10.52;5.97;;;;;;;;;;6395900;22;20162;-47
2021/01/27 01:11:54;;;;;;;8.60;5.82;;;;;;;;;;6395985;22;20225;-47
2021/01/27 01:14:22;;;;;;;11.10;6.05;;;;;;;;;;6395837;22;20185;-55
2021/01/27 01:16:54;;;;;;;13.48;8.40;;;;;;;;;;6395628;22;20176;-48
2021/01/27 01:19:21;;;;;;;9.88;6.00;;;;;;;;;;6395601;22;20181;-53
2021/01/27 01:21:48;;;;;;;11.95;7.72;;;;;;;;;;6395768;22;20149;-54
2021/01/27 01:24:17;;;;;;;11.48;7.78;;;;;;;;;;6395766;22;20181;-51
2021/01/27 01:26:44;;;;;;;8.55;6.22;;;;;;;;;;6395504;22;20202;-51
2021/01/27 01:29:11;;;;;;;12.40;6.55;;;;;;;;;;6395446;22;20193;-44
2021/01/27 01:31:48;;;;;;;10.10;6.93;;;;;;;;;;6395954;22;20196;-57
2021/01/27 01:34:15;;;;;;;8.10;6.13;;;;;;;;;;6396396;22;20178;-53
2021/01/27 01:36:42;;;;;;;13.77;7.85;;;;;;;;;;6397019;22;20184;-47
2021/01/27 01:39:15;;;;;;;12.90;8.60;;;;;;;;;;6396864;22;20314;-47
2021/01/27 01:41:42;;;;;;;9.63;6.20;;;;;;;;;;6396448;22;20166;-50
2021/01/27 01:44:08;;;;;;;6.28;4.78;;;;;;;;;;6396169;22;20175;-48
2021/01/27 01:46:36;;;;;;;9.60;6.97;;;;;;;;;;6396090;22;20191;-51
2021/01/27 01:49:05;;;;;;;17.35;8.88;;;;;;;;;;6395126;22;20180;-52
2021/01/27 01:51:32;;;;;;;17.88;10.02;;;;;;;;;;6395933;22;20194;-54
2021/01/27 01:54:02;;;;;;;13.65;7.38;;;;;;;;;;6395630;22;20196;-46
2021/01/27 01:56:31;;;;;;;15.18;7.78;;;;;;;;;;6395733;22;20202;-52
2021/01/27 01:58:58;;;;;;;19.30;11.25;;;;;;;;;;6395525;22;20208;-53
2021/01/27 02:01:25;;;;;;;17.10;9.93;;;;;;;;;;6394711;22;20299;-56
2021/01/27 02:03:53;;;;;;;14.98;10.27;;;;;;;;;;6395295;22;20173;-52
2021/01/27 02:06:23;;;;;;;13.55;8.77;;;;;;;;;;6395189;22;20185;-48
2021/01/27 02:08:51;;;;;;;13.23;6.35;;;;;;;;;;6395957;22;20177;-54
2021/01/27 02:11:27;;;;;;;16.50;9.05;;;;;;;;;;6395787;22;20177;-53
2021/01/27 02:14:13;;;;;;;16.95;9.80;;;;;;;;;;6392115;22;20243;-54
2021/01/27 02:16:44;;;;;;;17.08;9.85;;;;;;;;;;6398017;22;20189;-52
2021/01/27 02:19:35;;;;;;;14.43;9.15;;;;;;;;;;6399941;22;20172;-49
2021/01/27 02:25:24;;;;;;;13.13;9.07;;;;;;;;;;6397309;22;20195;-59
2021/01/27 02:27:56;;;;;;;16.80;10.13;;;;;;;;;;6397813;22;20181;-58
2021/01/27 02:30:41;;;;;;;11.05;5.57;;;;;;;;;;6398918;22;20218;-52
2021/01/27 02:33:32;;;;;;;6.55;4.55;;;;;;;;;;6398862;22;20185;-53
2021/01/27 02:36:06;;;;;;;19.40;11.35;;;;;;;;;;6397289;22;20205;-53
2021/01/27 02:41:36;;;;;;;7.10;5.20;;;;;;;;;;6376675;22;20181;-53
2021/01/27 02:44:05;;;;;;;9.00;4.97;;;;;;;;;;6398524;22;20165;-56
2021/01/27 02:46:40;;;;;;;22.05;14.20;;;;;;;;;;6398047;22;20194;-50
2021/01/27 02:49:10;;;;;;;5.50;4.00;;;;;;;;;;6397296;22;20246;-53
2021/01/27 02:51:48;;;;;;;8.52;4.90;;;;;;;;;;6397861;22;20177;-51
2021/01/27 02:54:51;;;;;;;5.75;3.25;;;;;;;;;;6398043;22;20167;-55
2021/01/27 02:57:21;;;;;;;8.30;4.75;;;;;;;;;;6397315;22;20286;-55
2021/01/27 02:59:51;;;;;;;7.93;4.00;;;;;;;;;;6397773;22;20177;-54
2021/01/27 03:02:21;;;;;;;6.68;4.22;;;;;;;;;;6397189;22;20218;-55
2021/01/27 03:04:50;;;;;;;8.30;4.55;;;;;;;;;;6397354;22;20185;-52
2021/01/27 03:07:21;;;;;;;15.35;7.45;;;;;;;;;;6397401;22;20188;-56
2021/01/27 03:10:01;;;;;;;9.15;5.13;;;;;;;;;;6398298;22;20180;-52
2021/01/27 03:12:28;;;;;;;8.45;4.50;;;;;;;;;;6397022;22;20201;-53
2021/01/27 03:14:55;;;;;;;7.30;4.18;;;;;;;;;;6397371;22;20180;-56
2021/01/27 03:17:31;;;;;;;10.13;5.95;;;;;;;;;;6397036;22;20162;-57
2021/01/27 03:20:00;;;;;;;7.35;4.72;;;;;;;;;;6397151;22;20177;-46
2021/01/27 03:22:36;;;;;;;10.85;8.13;;;;;;;;;;6397670;22;20188;-50
2021/01/27 03:25:06;;;;;;;4.70;3.05;;;;;;;;;;6398030;22;20171;-52
2021/01/27 03:27:38;;;;;;;13.70;7.75;;;;;;;;;;6397571;22;20162;-54
2021/01/27 03:30:09;;;;;;;6.63;3.83;;;;;;;;;;6397481;22;20188;-51
2021/01/27 03:32:40;;;;;;;8.85;6.00;;;;;;;;;;6396963;22;20181;-52
2021/01/27 03:35:10;;;;;;;6.47;4.13;;;;;;;;;;6397509;22;20161;-49
2021/01/27 03:37:43;;;;;;;7.72;3.40;;;;;;;;;;6397385;22;20173;-53
2021/01/27 03:40:13;;;;;;;12.18;4.55;;;;;;;;;;6397465;22;20168;-55
2021/01/27 03:42:43;;;;;;;7.50;4.38;;;;;;;;;;6396612;22;20193;-51
2021/01/27 03:45:24;;;;;;;6.75;4.30;;;;;;;;;;6397029;22;20490;-53
2021/01/27 03:47:53;;;;;;;6.95;3.35;;;;;;;;;;6397091;22;20177;-50
2021/01/27 03:50:22;;;;;;;5.15;3.17;;;;;;;;;;6396730;22;20176;-58
2021/01/27 03:52:54;;;;;;;5.65;3.22;;;;;;;;;;6398008;22;20177;-55
2021/01/27 03:55:24;;;;;;;4.90;3.30;;;;;;;;;;6398147;22;20206;-55
2021/01/27 03:57:55;;;;;;;5.32;3.42;;;;;;;;;;6397846;22;20166;-58
2021/01/27 04:00:23;;;;;;;5.25;2.92;;;;;;;;;;6397144;22;20169;-58
2021/01/27 04:03:15;;;;;;;4.95;2.63;;;;;;;;;;6397512;22;20169;-50
2021/01/27 04:05:44;;;;;;;10.60;2.60;;;;;;;;;;6396099;22;20242;-58
2021/01/27 04:08:11;;;;;;;6.03;2.70;;;;;;;;;;6396476;22;20169;-52
2021/01/27 04:10:38;;;;;;;4.80;2.83;;;;;;;;;;6397404;22;20154;-56
2021/01/27 04:13:20;;;;;;;4.70;2.92;;;;;;;;;;6397776;22;20169;-46
2021/01/27 04:15:47;;;;;;;4.72;3.08;;;;;;;;;;6396420;22;20198;-52
2021/01/27 04:18:17;;;;;;;5.20;3.10;;;;;;;;;;6396701;22;20198;-57
2021/01/27 04:20:49;;;;;;;3.92;2.25;;;;;;;;;;6395943;22;20181;-54
2021/01/27 04:23:17;;;;;;;7.18;2.90;;;;;;;;;;6397031;22;20181;-55
2021/01/27 04:25:55;;;;;;;7.10;3.15;;;;;;;;;;6396192;22;20196;-53
2021/01/27 04:28:23;;;;;;;5.65;3.40;;;;;;;;;;6396285;22;20160;-52
2021/01/27 04:30:50;;;;;;;6.85;3.40;;;;;;;;;;6396027;22;20229;-58
2021/01/27 04:33:19;;;;;;;8.75;3.65;;;;;;;;;;6396249;22;20188;-55
2021/01/27 04:35:47;;;;;;;4.53;3.25;;;;;;;;;;6395509;22;20177;-50
2021/01/27 04:38:14;;;;;;;5.53;4.22;;;;;;;;;;6395978;22;20196;-53
2021/01/27 04:41:01;;;;;;;5.53;3.60;;;;;;;;;;6396667;22;20149;-60
2021/01/27 04:43:30;;;;;;;6.70;3.85;;;;;;;;;;6396360;22;20226;-52
2021/01/27 04:46:02;;;;;;;4.80;3.30;;;;;;;;;;6396992;22;20187;-56
2021/01/27 04:48:33;;;;;;;5.70;2.60;;;;;;;;;;6396823;22;20170;-52
2021/01/27 04:51:00;;;;;;;5.32;3.25;;;;;;;;;;6396589;22;20169;-58
2021/01/27 04:53:32;;;;;;;3.45;2.55;;;;;;;;;;6396985;22;20165;-54
2021/01/27 04:56:19;;;;;;;4.68;3.10;;;;;;;;;;6394630;22;20189;-51
2021/01/27 04:58:51;;;;;;;7.85;3.25;;;;;;;;;;6396584;22;20158;-57
2021/01/27 05:01:47;;;;;;;5.00;3.10;;;;;;;;;;6396928;22;20165;-50
2021/01/27 05:04:19;;;;;;;6.70;3.20;;;;;;;;;;6396093;22;20182;-52
2021/01/27 05:06:49;;;;;;;5.10;3.03;;;;;;;;;;6396225;22;20209;-52
2021/01/27 05:09:23;;;;;;;10.80;4.05;;;;;;;;;;6396891;22;20165;-56
2021/01/27 05:11:52;;;;;;;4.93;3.33;;;;;;;;;;6395884;22;20193;-55
2021/01/27 05:14:21;;;;;;;5.72;3.25;;;;;;;;;;6396922;22;20181;-51
2021/01/27 05:16:51;;;;;;;5.57;3.80;;;;;;;;;;6395002;22;20268;-61
2021/01/27 05:19:17;;;;;;;8.88;3.78;;;;;;;;;;6395585;22;20201;-56
2021/01/27 05:22:13;;;;;;;9.30;3.50;;;;;;;;;;6395895;22;20169;-58
2021/01/27 05:24:40;;;;;;;4.28;2.90;;;;;;;;;;6396155;22;20184;-63
2021/01/27 05:27:09;;;;;;;8.05;3.70;;;;;;;;;;6395376;22;20176;-57
2021/01/27 05:29:40;;;;;;;5.28;3.10;;;;;;;;;;6396423;22;20179;-51
2021/01/27 05:32:08;;;;;;;6.10;3.05;;;;;;;;;;6396197;22;20171;-53
2021/01/27 05:34:37;;;;;;;8.50;5.38;;;;;;;;;;6396168;22;20180;-50
2021/01/27 05:37:13;;;;;;;7.32;3.88;;;;;;;;;;6396394;22;20150;-56
2021/01/27 05:39:41;;;;;;;7.32;5.20;;;;;;;;;;6396124;22;20180;-54
2021/01/27 05:42:19;;;;;;;9.45;4.05;;;;;;;;;;6394484;22;20208;-53
2021/01/27 05:44:47;;;;;;;6.90;3.13;;;;;;;;;;6395202;22;20188;-53
2021/01/27 05:47:22;;;;;;;5.55;3.85;;;;;;;;;;6394408;22;20209;-53
2021/01/27 05:49:49;;;;;;;5.30;2.97;;;;;;;;;;6394988;22;20276;-52
2021/01/27 05:52:37;;;;;;;5.20;2.72;;;;;;;;;;6394854;22;20185;-56
2021/01/27 05:55:08;;;;;;;4.60;2.88;;;;;;;;;;6395179;22;20184;-47
2021/01/27 05:57:36;;;;;;;4.63;3.00;;;;;;;;;;6395570;22;20170;-49
2021/01/27 06:00:26;;;;;;;5.05;2.97;;;;;;;;;;6394770;22;20164;-58
2021/01/27 06:02:54;;;;;;;3.25;2.13;;;;;;;;;;6395153;22;20180;-51
2021/01/27 06:05:37;;;;;;;4.03;2.67;;;;;;;;;;6395347;22;20203;-59
2021/01/27 06:08:11;;;;;;;7.10;2.88;;;;;;;;;;6394949;22;20190;-53
2021/01/27 06:10:39;;;;;;;6.10;3.65;;;;;;;;;;6394387;22;20203;-54
2021/01/27 06:13:16;;;;;;;5.85;3.95;;;;;;;;;;6394972;22;20183;-52
2021/01/27 06:15:43;;;;;;;8.55;3.88;;;;;;;;;;6394111;22;20183;-51
2021/01/27 06:18:20;;;;;;;9.43;4.38;;;;;;;;;;6394972;22;20225;-54
2021/01/27 06:20:55;;;;;;;6.75;4.13;;;;;;;;;;6394993;22;20171;-59
2021/01/27 06:23:54;;;;;;;6.40;3.92;;;;;;;;;;6396045;22;20169;-56
2021/01/27 06:29:42;;;;;;;5.22;3.83;;;;;;;;;;6238380;23;20207;-54
2021/01/27 06:32:28;;;;;;;6.15;2.90;;;;;;;;;;6228957;23;20180;-53
2021/01/27 06:35:03;;;;;;;3.92;2.83;;;;;;;;;;6338237;22;20184;-61
2021/01/27 06:37:38;;;;;;;5.47;3.42;;;;;;;;;;6395057;22;20168;-55
2021/01/27 06:40:24;;;;;;;4.97;3.30;;;;;;;;;;6395368;22;20188;-55
2021/01/27 06:42:59;;;;;;;9.70;3.35;;;;;;;;;;6394588;22;20181;-51
2021/01/27 06:45:30;;;;;;;7.25;4.13;;;;;;;;;;6395578;22;20201;-46
2021/01/27 06:48:19;;;;;;;5.47;3.78;;;;;;;;;;6396022;22;20161;-54
2021/01/27 06:51:06;;;;;;;8.57;4.50;;;;;;;;;;6395814;22;20165;-55
2021/01/27 06:54:03;;;;;;;6.70;4.30;;;;;;;;;;6396624;22;20174;-56
2021/01/27 06:56:39;;;;;;;8.45;3.53;;;;;;;;;;6395699;22;20168;-50
2021/01/27 06:59:17;;;;;;;10.20;4.63;;;;;;;;;;6396006;22;20176;-52
2021/01/27 07:02:17;;;;;;;11.05;4.38;;;;;;;;;;6395137;22;20201;-57
2021/01/27 07:04:54;;;;;;;7.25;4.60;;;;;;;;;;6396753;22;20292;-54
2021/01/27 07:07:32;;;;;;;6.90;3.65;;;;;;;;;;6396567;22;20350;-54
2021/01/27 07:10:09;;;;;;;6.28;4.78;;;;;;;;;;6396866;22;20168;-54
2021/01/27 07:12:38;;;;;;;7.00;4.40;;;;;;;;;;6396577;22;20173;-57
2021/01/27 07:15:23;;;;;;;5.55;4.00;;;;;;;;;;6395266;22;20166;-53
2021/01/27 07:17:58;;;;;;;7.15;5.10;;;;;;;;;;6396480;22;20218;-58
2021/01/27 07:20:28;;;;;;;6.03;4.60;;;;;;;;;;6396072;22;20186;-54
2021/01/27 07:23:01;;;;;;;10.30;5.00;;;;;;;;;;6396488;22;20214;-55
2021/01/27 07:25:34;;;;;;;8.23;3.90;;;;;;;;;;6395984;22;20173;-56
2021/01/27 07:28:09;;;;;;;14.85;4.85;;;;;;;;;;6395669;22;20182;-52
2021/01/27 07:30:38;;;;;;;8.23;5.80;;;;;;;;;;6395044;22;20193;-53
2021/01/27 07:33:08;;;;;;;6.80;4.68;;;;;;;;;;6395444;22;20185;-57
2021/01/27 07:35:41;;;;;;;8.27;4.88;;;;;;;;;;6395750;22;20212;-55
2021/01/27 07:38:14;;;;;;;10.15;4.45;;;;;;;;;;6395395;22;20149;-53
2021/01/27 07:41:00;;;;;;;8.40;4.55;;;;;;;;;;6396443;22;20193;-51
2021/01/27 07:43:29;;;;;;;6.90;4.82;;;;;;;;;;6395223;22;20206;-53
2021/01/27 07:45:56;;;;;;;4.75;3.72;;;;;;;;;;6396840;22;20184;-56
2021/01/27 07:48:51;;;;;;;5.30;4.32;;;;;;;;;;6396549;22;20198;-57
2021/01/27 07:51:22;;;;;;;7.15;4.10;;;;;;;;;;6396328;22;20176;-56
2021/01/27 07:54:00;;;;;;;8.35;5.20;;;;;;;;;;6397128;22;20173;-56
2021/01/27 07:56:30;;;;;;;7.30;3.50;;;;;;;;;;6395694;22;20156;-52
2021/01/27 07:58:59;;;;;;;6.88;4.32;;;;;;;;;;6396728;22;20229;-50
2021/01/27 08:01:33;;;;;;;9.52;4.13;;;;;;;;;;6395541;22;20166;-56
2021/01/27 08:04:14;;;;;;;6.57;4.13;;;;;;;;;;6396949;22;20165;-57
2021/01/27 08:06:44;;;;;;;7.72;4.18;;;;;;;;;;6396018;22;20331;-53
2021/01/27 08:09:14;;;;;;;6.07;3.70;;;;;;;;;;6395590;22;20177;-60
2021/01/27 08:11:42;;;;;;;5.82;3.97;;;;;;;;;;6395538;22;20183;-59
2021/01/27 08:14:10;;;;;;;6.05;4.05;;;;;;;;;;6395145;22;20167;-52
2021/01/27 08:16:44;;;;;;;6.65;3.90;;;;;;;;;;6395464;22;20169;-51
2021/01/27 08:19:29;;;;;;;6.20;4.40;;;;;;;;;;6395575;22;20164;-57
2021/01/27 08:22:28;;;;;;;6.45;3.78;;;;;;;;;;6395740;22;20176;-57
2021/01/27 08:24:58;;;;;;;14.65;4.65;;;;;;;;;;6395640;22;20176;-59
2021/01/27 08:27:43;;;;;;;8.07;4.57;;;;;;;;;;6395805;22;20256;-53
2021/01/27 08:30:27;;;;;;;7.55;4.10;;;;;;;;;;6393746;22;20219;-58
2021/01/27 08:33:28;;;;;;;5.82;4.03;;;;;;;;;;6395765;22;20187;-56
2021/01/27 08:35:57;;;;;;;4.65;3.45;;;;;;;;;;6394787;22;20353;-57
2021/01/27 08:38:27;;;;;;;5.30;4.40;;;;;;;;;;6394970;22;20589;-48
2021/01/27 08:40:55;;;;;;;7.75;4.57;;;;;;;;;;6394920;22;20176;-52
2021/01/27 08:43:38;;;;;;;9.27;5.45;;;;;;;;;;6395052;22;20211;-55
2021/01/27 08:46:23;;;;;;;14.07;4.10;;;;;;;;;;6394782;22;20200;-51
2021/01/27 08:51:54;;;;;;;7.03;3.97;;;;;;;;;;6394327;22;20199;-55
2021/01/27 08:54:23;;;;;;;6.25;3.83;;;;;;;;;;6394077;22;20229;-53
2021/01/27 08:57:06;;;;;;;6.93;4.53;;;;;;;;;;6395005;22;20146;-48
2021/01/27 08:59:34;;;;;;;6.05;4.22;;;;;;;;;;6375320;22;20178;-53
2021/01/27 09:02:24;;;;;;;5.28;3.50;;;;;;;;;;6394108;22;20265;-54
2021/01/27 09:04:51;;;;;;;9.02;5.88;;;;;;;;;;6393807;22;20184;-50
2021/01/27 09:07:17;;;;;;;8.07;4.47;;;;;;;;;;6393685;22;20257;-57
2021/01/27 09:09:44;;;;;;;4.75;3.20;;;;;;;;;;6395803;22;20173;-56
2021/01/27 09:12:11;;;;;;;5.63;3.47;;;;;;;;;;6394549;22;20167;-55
2021/01/27 09:14:57;;;;;;;7.18;3.50;;;;;;;;;;6395656;22;20165;-55
2021/01/27 09:17:23;;;;;;;7.95;5.78;;;;;;;;;;6394321;22;20181;-53
2021/01/27 09:19:55;;;;;;;6.45;4.25;;;;;;;;;;6394378;22;20165;-56
2021/01/27 09:22:45;;;;;;;16.88;11.80;;;;;;;;;;6394960;22;20182;-54
2021/01/27 09:25:14;;;;;;;14.38;9.50;;;;;;;;;;6395892;22;20165;-55
2021/01/27 09:27:41;;;;;;;12.02;6.43;;;;;;;;;;6396109;22;20230;-56
2021/01/27 09:30:11;;;;;;;18.92;14.15;;;;;;;;;;6396277;22;20149;-56
2021/01/27 09:32:38;;;;;;;8.85;4.82;;;;;;;;;;6395979;22;20177;-56
2021/01/27 09:35:15;;;;;;;4.55;3.65;;;;;;;;;;6394639;22;20174;-54
2021/01/27 09:38:05;;;;;;;6.68;4.13;;;;;;;;;;6394197;22;20153;-54
2021/01/27 09:40:34;;;;;;;6.57;3.38;;;;;;;;;;6394005;22;20176;-57
2021/01/27 09:43:02;;;;;;;6.68;4.20;;;;;;;;;;6394103;22;20204;-55
2021/01/27 09:45:38;;;;;;;7.10;4.00;;;;;;;;;;6393654;22;20193;-53
2021/01/27 09:48:06;;;;;;;8.88;4.45;;;;;;;;;;6394019;22;20169;-56
2021/01/27 09:50:34;;;;;;;6.78;4.70;;;;;;;;;;6394919;22;20214;-60
2021/01/27 09:56:10;;;;;;;6.88;4.90;;;;;;;;;;6394026;22;20222;-58
2021/01/27 09:58:40;;;;;;;4.95;4.00;;;;;;;;;;6394547;22;20166;-60
2021/01/27 10:01:32;;;;;;;9.05;3.95;;;;;;;;;;6394877;22;20178;-55
2021/01/27 10:04:08;;;;;;;6.03;3.45;;;;;;;;;;6393507;22;20213;-57
2021/01/27 10:06:37;;;;;;;7.53;4.05;;;;;;;;;;6394066;22;20200;-56
2021/01/27 10:09:09;;;;;;;6.53;3.58;;;;;;;;;;6394444;22;20378;-57
2021/01/27 10:11:36;;;;;;;4.32;3.30;;;;;;;;;;6394251;22;20180;-52
2021/01/27 10:14:05;;;;;;;8.40;5.57;;;;;;;;;;6395158;22;20177;-55
2021/01/27 10:16:33;;;;;;;5.22;3.65;;;;;;;;;;6394584;22;20149;-57
2021/01/27 10:19:02;;;;;;;10.00;3.30;;;;;;;;;;6394783;22;20177;-57
2021/01/27 10:21:29;;;;;;;7.90;3.80;;;;;;;;;;6395315;22;20178;-54
2021/01/27 10:23:56;;;;;;;9.00;4.03;;;;;;;;;;6393912;22;20181;-57
2021/01/27 10:26:25;;;;;;;4.45;2.92;;;;;;;;;;6394912;22;20194;-51
2021/01/27 10:29:13;;;;;;;7.30;4.40;;;;;;;;;;6394022;22;20233;-55
2021/01/27 10:31:42;;;;;;;5.65;4.28;;;;;;;;;;6393518;22;20150;-56
2021/01/27 10:34:09;;;;;;;8.90;4.45;;;;;;;;;;6393468;22;20176;-58
2021/01/27 10:36:46;;;;;;;6.70;4.30;;;;;;;;;;6393385;22;20251;-59
2021/01/27 10:39:14;;;;;;;4.63;3.15;;;;;;;;;;6395155;22;20177;-58
2021/01/27 10:41:42;;;;;;;6.80;4.32;;;;;;;;;;6394926;22;20185;-57
2021/01/27 10:44:22;;;;;;;7.40;4.70;;;;;;;;;;6395757;22;20169;-55
2021/01/27 10:46:51;;;;;;;10.43;4.47;;;;;;;;;;6395366;22;20173;-57
2021/01/27 10:49:24;;;;;;;5.25;4.20;;;;;;;;;;6396339;22;20174;-58
2021/01/27 10:51:52;;;;;;;8.88;5.93;;;;;;;;;;6397310;22;20189;-59
2021/01/27 10:54:21;;;;;;;6.95;4.95;;;;;;;;;;6396719;22;20242;-50
2021/01/27 10:57:06;;;;;;;6.80;4.55;;;;;;;;;;6396034;22;20177;-59
2021/01/27 10:59:37;;;;;;;6.55;5.35;;;;;;;;;;6396013;22;20205;-55
2021/01/27 11:02:06;;;;;;;7.15;4.53;;;;;;;;;;6396669;22;20190;-56
2021/01/27 11:04:42;;;;;;;7.20;4.10;;;;;;;;;;6396729;22;20190;-60
2021/01/27 11:07:09;;;;;;;8.02;5.40;;;;;;;;;;6396253;22;20189;-54
2021/01/27 11:09:42;;;;;;;6.35;4.00;;;;;;;;;;6396253;22;20163;-52
2021/01/27 11:12:46;;;;;;;6.70;4.65;;;;;;;;;;6397304;22;20166;-57
2021/01/27 11:15:17;;;;;;;7.03;4.72;;;;;;;;;;6397379;22;20190;-59
2021/01/27 11:17:45;;;;;;;7.20;4.88;;;;;;;;;;6397424;22;20222;-55
2021/01/27 11:20:25;;;;;;;10.88;5.05;;;;;;;;;;6397029;22;20180;-58
2021/01/27 11:22:53;;;;;;;9.65;5.70;;;;;;;;;;6395501;22;20198;-54
2021/01/27 11:25:23;;;;;;;9.00;4.93;;;;;;;;;;6396021;22;20596;-58
2021/01/27 11:27:57;;;;;;;8.63;5.20;;;;;;;;;;6395299;22;20202;-53
2021/01/27 11:30:28;;;;;;;6.18;4.43;;;;;;;;;;6394811;22;20201;-55
2021/01/27 11:32:56;;;;;;;7.45;5.65;;;;;;;;;;6395397;22;20177;-56
2021/01/27 11:35:25;;;;;;;8.68;5.43;;;;;;;;;;6396212;22;20212;-53
2021/01/27 11:37:53;;;;;;;7.82;5.13;;;;;;;;;;6396490;22;20165;-57
2021/01/27 11:40:21;;;;;;;6.60;4.88;;;;;;;;;;6395950;22;20177;-52
2021/01/27 11:42:51;;;;;;;8.65;5.53;;;;;;;;;;6396457;22;20170;-51
2021/01/27 11:45:23;;;;;;;10.65;5.63;;;;;;;;;;6397029;22;20178;-56
2021/01/27 11:48:17;;;;;;;6.43;4.90;;;;;;;;;;6396925;22;20258;-53
2021/01/27 11:50:47;;;;;;;7.28;4.63;;;;;;;;;;6396882;22;20162;-52
2021/01/27 11:53:15;;;;;;;5.45;4.70;;;;;;;;;;6396543;22;20181;-56
2021/01/27 11:58:45;;;;;;;12.68;5.93;;;;;;;;;;6396227;22;20205;-53
2021/01/27 12:01:17;;;;;;;8.85;4.68;;;;;;;;;;6396832;22;20192;-59
2021/01/27 12:04:03;;;;;;;7.65;4.78;;;;;;;;;;6397246;22;20234;-55
2021/01/27 12:06:31;;;;;;;7.47;4.10;;;;;;;;;;6396820;22;20201;-52
2021/01/27 12:08:58;;;;;;;8.32;4.50;;;;;;;;;;6395635;22;20178;-55
2021/01/27 12:11:32;;;;;;;5.15;3.67;;;;;;;;;;6395437;22;20207;-53
2021/01/27 12:13:58;;;;;;;6.28;5.30;;;;;;;;;;6396682;22;20177;-60
2021/01/27 12:16:26;;;;;;;6.97;4.80;;;;;;;;;;6395126;22;20162;-55
2021/01/27 12:18:55;;;;;;;5.63;4.70;;;;;;;;;;6396088;22;20224;-59
2021/01/27 12:21:22;;;;;;;5.93;4.63;;;;;;;;;;6395149;22;20178;-53
2021/01/27 12:23:50;;;;;;;7.53;6.15;;;;;;;;;;6386428;22;20178;-56
2021/01/27 12:26:18;;;;;;;9.48;5.18;;;;;;;;;;6392486;22;20222;-54
2021/01/27 12:28:45;;;;;;;7.30;4.93;;;;;;;;;;6395069;22;20176;-54
2021/01/27 12:31:15;;;;;;;7.85;5.18;;;;;;;;;;6396715;22;20210;-58
2021/01/27 12:33:47;;;;;;;7.55;5.90;;;;;;;;;;6394873;22;20223;-52
2021/01/27 12:40:11;;;;;;;7.45;5.25;;;;;;;;;;6383218;22;20252;-58
2021/01/27 12:42:41;;;;;;;9.63;5.95;;;;;;;;;;6396254;22;20194;-60
2021/01/27 12:45:09;;;;;;;6.47;5.03;;;;;;;;;;6395740;22;20182;-55
2021/01/27 12:47:36;;;;;;;6.18;4.90;;;;;;;;;;6394955;22;20268;-56
2021/01/27 12:50:03;;;;;;;11.20;5.38;;;;;;;;;;6395329;22;20332;-56
2021/01/27 12:53:01;;;;;;;7.53;5.10;;;;;;;;;;6395214;22;20178;-57
2021/01/27 12:55:29;;;;;;;6.85;5.07;;;;;;;;;;6394474;22;20186;-59
2021/01/27 12:58:00;;;;;;;6.97;5.00;;;;;;;;;;6395212;22;20258;-56
2021/01/27 13:00:40;;;;;;;7.05;4.97;;;;;;;;;;6394559;22;20165;-53
2021/01/27 13:03:08;;;;;;;9.00;6.15;;;;;;;;;;6394911;22;20181;-54
2021/01/27 13:05:37;;;;;;;9.13;6.13;;;;;;;;;;6395084;22;20165;-58
2021/01/27 13:08:15;;;;;;;9.27;6.68;;;;;;;;;;6395725;22;20170;-57
2021/01/27 13:10:53;;;;;;;11.50;7.72;;;;;;;;;;6394737;22;20201;-56
2021/01/27 13:13:21;;;;;;;8.13;5.60;;;;;;;;;;6394639;22;20208;-61
2021/01/27 13:15:50;;;;;;;7.70;4.97;;;;;;;;;;6394535;22;20166;-60
2021/01/27 13:18:17;;;;;;;10.40;5.95;;;;;;;;;;6394652;22;20189;-53
2021/01/27 13:20:44;;;;;;;7.93;5.50;;;;;;;;;;6395178;22;20155;-59
2021/01/27 13:23:16;;;;;;;6.88;5.75;;;;;;;;;;6393280;22;20170;-55
2021/01/27 13:25:43;;;;;;;10.82;6.80;;;;;;;;;;6394945;22;20198;-57
2021/01/27 13:28:17;;;;;;;9.90;6.55;;;;;;;;;;6394064;22;20189;-59
2021/01/27 13:30:44;;;;;;;8.90;5.35;;;;;;;;;;6394335;22;20202;-60
2021/01/27 13:33:13;;;;;;;5.22;4.72;;;;;;;;;;6394829;22;20208;-54
2021/01/27 13:35:41;;;;;;;5.90;5.00;;;;;;;;;;6394150;22;20201;-53
2021/01/27 13:38:10;;;;;;;6.45;5.05;;;;;;;;;;6394293;22;20155;-52
2021/01/27 13:40:39;;;;;;;10.35;5.45;;;;;;;;;;6393994;22;20161;-59
2021/01/27 13:43:06;;;;;;;5.40;3.75;;;;;;;;;;6395426;22;20170;-58
2021/01/27 13:45:34;;;;;;;7.95;5.03;;;;;;;;;;6395047;22;20189;-59
2021/01/27 13:48:03;;;;;;;15.20;4.85;;;;;;;;;;6395047;22;20214;-59
2021/01/27 13:50:30;;;;;;;8.00;4.60;;;;;;;;;;6395120;22;20166;-59
2021/01/27 13:52:57;;;;;;;8.60;5.32;;;;;;;;;;6394459;22;20162;-51
2021/01/27 13:55:32;;;;;;;6.40;4.70;;;;;;;;;;6394336;22;20174;-57
2021/01/27 13:57:59;;;;;;;6.28;4.53;;;;;;;;;;6394567;22;20192;-58
2021/01/27 14:00:26;;;;;;;6.30;5.28;;;;;;;;;;6393874;22;20185;-57
2021/01/27 14:03:12;;;;;;;7.55;5.88;;;;;;;;;;6394557;22;20186;-61
2021/01/27 14:05:43;;;;;;;8.68;5.85;;;;;;;;;;6393474;22;20189;-52
2021/01/27 14:08:11;;;;;;;7.45;5.07;;;;;;;;;;6394341;22;20170;-53
2021/01/27 14:10:47;;;;;;;10.68;5.80;;;;;;;;;;6394440;22;20178;-58
2021/01/27 14:13:17;;;;;;;13.80;5.65;;;;;;;;;;6393914;22;20165;-54
2021/01/27 14:15:44;;;;;;;7.43;6.30;;;;;;;;;;6394035;22;20183;-59
2021/01/27 14:18:31;;;;;;;6.15;5.40;;;;;;;;;;6394031;22;20247;-60
2021/01/27 14:20:59;;;;;;;6.05;4.90;;;;;;;;;;6393491;22;20176;-60
2021/01/27 14:23:27;;;;;;;11.13;6.45;;;;;;;;;;6394585;22;20189;-55
2021/01/27 14:25:55;;;;;;;9.85;6.25;;;;;;;;;;6393683;22;20204;-57
2021/01/27 14:28:23;;;;;;;10.10;6.72;;;;;;;;;;6393406;22;20219;-58
2021/01/27 14:30:50;;;;;;;12.00;7.53;;;;;;;;;;6393081;22;20154;-58
2021/01/27 14:33:19;;;;;;;7.88;5.65;;;;;;;;;;6393550;22;20177;-55
2021/01/27 14:35:47;;;;;;;8.15;6.13;;;;;;;;;;6394214;22;20182;-54
2021/01/27 14:38:18;;;;;;;14.50;6.50;;;;;;;;;;6394942;22;20617;-58
2021/01/27 14:40:46;;;;;;;12.63;8.10;;;;;;;;;;6394581;22;20178;-54
2021/01/27 14:43:16;;;;;;;6.40;5.18;;;;;;;;;;6394080;22;20177;-56
2021/01/27 14:46:05;;;;;;;11.73;6.25;;;;;;;;;;6366644;22;20199;-55
2021/01/27 14:48:32;;;;;;;8.52;4.40;;;;;;;;;;6393939;22;20174;-56
2021/01/27 14:50:59;;;;;;;6.50;3.78;;;;;;;;;;6393729;22;20195;-58
2021/01/27 14:53:28;;;;;;;6.55;3.72;;;;;;;;;;6394620;22;20166;-51
2021/01/27 14:55:55;;;;;;;4.70;3.47;;;;;;;;;;6393232;22;20178;-59
2021/01/27 14:58:22;;;;;;;10.80;5.18;;;;;;;;;;6395357;22;20166;-56
2021/01/27 15:01:05;;;;;;;4.82;3.60;;;;;;;;;;6393552;22;20167;-53
2021/01/27 15:03:33;;;;;;;5.53;3.60;;;;;;;;;;6393859;22;20193;-56
2021/01/27 15:06:04;;;;;;;6.78;3.30;;;;;;;;;;6393337;22;20261;-53
2021/01/27 15:08:34;;;;;;;6.38;4.45;;;;;;;;;;6394344;22;20183;-53
2021/01/27 15:11:01;;;;;;;5.25;3.90;;;;;;;;;;6393645;22;20169;-57
2021/01/27 15:13:28;;;;;;;4.30;3.22;;;;;;;;;;6393060;22;20197;-51
2021/01/27 15:15:56;;;;;;;5.10;3.30;;;;;;;;;;6393701;22;20154;-51
2021/01/27 15:18:23;;;;;;;6.97;4.30;;;;;;;;;;6393119;22;20330;-52
2021/01/27 15:20:50;;;;;;;10.38;3.95;;;;;;;;;;6393517;22;20170;-54
2021/01/27 15:23:29;;;;;;;4.50;3.90;;;;;;;;;;6393558;22;20183;-56
2021/01/27 15:26:01;;;;;;;6.13;4.28;;;;;;;;;;6395113;22;20198;-58
2021/01/27 15:31:27;;;;;;;8.07;4.15;;;;;;;;;;6395096;22;20194;-53
2021/01/27 15:33:57;;;;;;;4.90;3.60;;;;;;;;;;6395488;22;20400;-59
2021/01/27 15:36:24;;;;;;;6.30;4.50;;;;;;;;;;6395061;22;20163;-59
2021/01/27 15:41:56;;;;;;;7.18;4.18;;;;;;;;;;6395457;22;20167;-55